Time;durP1;ratioP1;P1;durP2;ratioP2;P2;SDS_P1;SDS_P2;PMS_P1;PMS_P2;Temp;Humidity;BMP_temperature;BMP_pressure;BME280_temperature;BME280_humidity;BME280_pressure;Samples;Min_cycle;Max_cycle;Signal;HPM_P1;HPM_P2
2022/04/09 00:02:23;;;;;;;28.02;8.10;;;7.90;99.90;;;;;;5033839;28;20409;-59
2022/04/09 00:04:49;;;;;;;20.55;7.72;;;7.90;99.90;;;;;;5039211;28;20037;-59
2022/04/09 00:07:15;;;;;;;22.70;7.10;;;7.80;99.90;;;;;;5037667;28;20382;-60
2022/04/09 00:09:41;;;;;;;24.35;6.43;;;7.80;99.90;;;;;;5037403;28;20033;-59
2022/04/09 00:12:08;;;;;;;22.25;6.30;;;7.70;99.90;;;;;;5037138;28;20025;-59
2022/04/09 00:14:34;;;;;;;18.27;5.30;;;7.80;99.90;;;;;;5031093;28;20041;-59
2022/04/09 00:17:00;;;;;;;25.77;5.80;;;7.80;99.90;;;;;;5038674;28;20056;-59
2022/04/09 00:19:26;;;;;;;22.17;5.13;;;7.80;99.90;;;;;;5035427;28;20041;-59
2022/04/09 00:21:52;;;;;;;23.42;5.40;;;7.90;99.90;;;;;;5037228;28;20080;-59
2022/04/09 00:24:17;;;;;;;22.73;5.47;;;7.90;99.90;;;;;;5037090;28;20056;-60
2022/04/09 00:26:43;;;;;;;22.30;5.13;;;7.90;99.90;;;;;;5033832;28;20490;-59
2022/04/09 00:29:09;;;;;;;21.98;5.78;;;8.00;99.90;;;;;;5036742;28;20022;-59
2022/04/09 00:31:35;;;;;;;25.67;7.35;;;8.10;99.90;;;;;;5037390;28;20029;-59
2022/04/09 00:34:01;;;;;;;29.67;7.78;;;8.00;99.90;;;;;;5037279;28;20036;-59
2022/04/09 00:36:27;;;;;;;28.63;7.50;;;7.90;99.90;;;;;;5036600;28;20033;-59
2022/04/09 00:38:52;;;;;;;30.77;7.72;;;7.90;99.90;;;;;;5035519;28;20532;-60
2022/04/09 00:41:19;;;;;;;31.38;8.43;;;7.90;99.90;;;;;;5032935;28;20021;-59
2022/04/09 00:43:44;;;;;;;33.05;8.93;;;7.80;99.90;;;;;;5038712;28;20053;-59
2022/04/09 00:46:13;;;;;;;29.27;7.63;;;7.80;99.90;;;;;;5035181;28;20099;-60
2022/04/09 00:48:39;;;;;;;28.13;7.65;;;7.90;99.90;;;;;;5035425;28;20036;-59
2022/04/09 00:51:05;;;;;;;26.98;7.03;;;7.70;99.90;;;;;;5036672;28;20086;-60
2022/04/09 00:53:36;;;;;;;23.42;5.97;;;7.50;99.90;;;;;;5015568;28;20029;-60
2022/04/09 00:56:21;;;;;;;25.35;5.85;;;7.50;99.90;;;;;;5046574;28;20060;-59
2022/04/09 00:58:56;;;;;;;26.50;5.78;;;7.40;99.90;;;;;;5036533;28;20041;-59
2022/04/09 01:01:27;;;;;;;24.50;5.05;;;7.40;99.90;;;;;;5036089;28;20060;-60
2022/04/09 01:03:54;;;;;;;27.92;5.75;;;7.60;99.90;;;;;;5036220;28;20028;-60
2022/04/09 01:06:21;;;;;;;24.08;5.15;;;7.60;99.90;;;;;;5036287;28;20028;-59
2022/04/09 01:08:47;;;;;;;23.25;5.55;;;7.50;99.90;;;;;;5034178;28;20387;-59
2022/04/09 01:11:13;;;;;;;23.95;5.10;;;7.40;99.90;;;;;;5035205;28;20035;-59
2022/04/09 01:13:40;;;;;;;22.92;5.75;;;7.40;99.90;;;;;;5037513;28;20022;-59
2022/04/09 01:16:06;;;;;;;19.27;4.70;;;7.50;99.90;;;;;;5035729;28;20037;-59
2022/04/09 01:18:33;;;;;;;22.30;5.32;;;7.60;99.90;;;;;;5035996;28;20040;-59
2022/04/09 01:21:00;;;;;;;20.63;4.97;;;7.60;99.90;;;;;;5035706;28;20033;-59
2022/04/09 01:23:27;;;;;;;22.58;5.50;;;7.60;99.90;;;;;;5032288;28;20417;-59
2022/04/09 01:25:55;;;;;;;19.08;4.97;;;7.60;99.90;;;;;;5037637;28;20433;-59
2022/04/09 01:28:20;;;;;;;25.85;6.25;;;7.60;99.90;;;;;;5036220;28;20033;-59
2022/04/09 01:30:46;;;;;;;25.13;6.72;;;7.60;99.90;;;;;;5035522;28;20029;-59
2022/04/09 01:33:16;;;;;;;27.00;7.10;;;7.70;99.90;;;;;;5034328;28;20454;-60
2022/04/09 01:35:42;;;;;;;27.63;7.88;;;7.70;99.90;;;;;;5030865;28;20046;-60
2022/04/09 01:38:08;;;;;;;24.98;6.78;;;7.70;99.90;;;;;;5035747;28;20517;-60
2022/04/09 01:40:34;;;;;;;25.08;6.85;;;7.80;99.90;;;;;;5035625;28;20030;-60
2022/04/09 01:42:59;;;;;;;16.45;4.00;;;7.90;99.90;;;;;;5035983;28;20097;-60
2022/04/09 01:45:27;;;;;;;18.15;4.97;;;8.10;99.90;;;;;;5035358;28;20040;-60
2022/04/09 01:47:53;;;;;;;16.85;3.70;;;8.20;99.90;;;;;;5033970;28;20027;-60
2022/04/09 01:50:20;;;;;;;17.23;3.83;;;8.30;99.90;;;;;;5032825;28;20032;-60
2022/04/09 01:52:45;;;;;;;15.40;3.50;;;8.40;99.90;;;;;;5037695;28;20014;-60
2022/04/09 01:55:11;;;;;;;13.70;3.50;;;8.40;99.90;;;;;;5035161;28;20041;-60
2022/04/09 01:57:37;;;;;;;17.00;3.80;;;8.30;99.90;;;;;;5035068;28;20490;-60
2022/04/09 02:00:06;;;;;;;14.13;3.33;;;8.30;99.90;;;;;;5034967;28;20063;-60
2022/04/09 02:02:32;;;;;;;14.07;3.20;;;8.30;99.90;;;;;;5015324;28;20032;-61
2022/04/09 02:04:57;;;;;;;12.65;3.10;;;8.20;99.90;;;;;;5037081;28;20108;-60
2022/04/09 02:07:23;;;;;;;14.40;3.25;;;8.30;99.90;;;;;;5033833;28;20508;-60
2022/04/09 02:09:50;;;;;;;16.15;3.17;;;8.20;99.90;;;;;;5035342;28;20521;-60
2022/04/09 02:12:15;;;;;;;15.13;3.13;;;8.20;99.90;;;;;;5033425;28;20056;-60
2022/04/09 02:14:41;;;;;;;13.90;3.00;;;8.20;99.90;;;;;;5030182;28;20058;-60
2022/04/09 02:17:07;;;;;;;14.75;3.42;;;8.20;99.90;;;;;;5035684;28;20026;-60
2022/04/09 02:19:33;;;;;;;13.63;3.15;;;8.20;99.90;;;;;;5035499;28;20045;-60
2022/04/09 02:21:59;;;;;;;15.02;3.30;;;8.20;99.90;;;;;;5034882;28;20109;-59
2022/04/09 02:24:24;;;;;;;18.08;4.15;;;8.20;99.90;;;;;;5034785;28;20115;-60
2022/04/09 02:26:50;;;;;;;15.65;3.53;;;8.10;99.90;;;;;;5032489;28;20048;-60
2022/04/09 02:29:16;;;;;;;17.65;3.47;;;8.10;99.90;;;;;;5033076;28;20036;-60
2022/04/09 02:31:41;;;;;;;15.57;3.10;;;7.90;99.90;;;;;;5036803;28;20052;-60
2022/04/09 02:34:08;;;;;;;12.02;3.08;;;7.80;99.90;;;;;;5034660;28;20125;-60
2022/04/09 02:36:35;;;;;;;13.20;3.70;;;7.80;99.90;;;;;;5034425;28;20049;-60
2022/04/09 02:39:01;;;;;;;14.88;3.50;;;7.70;99.90;;;;;;5033809;28;20105;-60
2022/04/09 02:41:29;;;;;;;14.82;3.38;;;7.60;99.90;;;;;;5030616;28;20132;-60
2022/04/09 02:43:55;;;;;;;15.10;3.97;;;7.50;99.90;;;;;;5036449;28;20164;-60
2022/04/09 02:46:21;;;;;;;14.40;3.53;;;7.50;99.90;;;;;;5034913;28;20025;-60
2022/04/09 02:48:47;;;;;;;15.20;3.58;;;7.40;99.90;;;;;;5034490;28;20052;-61
2022/04/09 02:51:13;;;;;;;12.70;2.90;;;7.20;99.90;;;;;;5032983;28;20489;-60
2022/04/09 02:53:39;;;;;;;12.43;3.20;;;7.10;99.90;;;;;;5028608;28;20415;-60
2022/04/09 02:56:05;;;;;;;12.73;2.80;;;6.80;99.90;;;;;;5034988;28;20030;-59
2022/04/09 02:58:31;;;;;;;15.07;3.50;;;6.60;99.90;;;;;;5034870;28;20121;-60
2022/04/09 03:00:57;;;;;;;17.23;3.53;;;6.50;99.90;;;;;;5034311;28;20117;-60
2022/04/09 03:03:22;;;;;;;16.83;3.50;;;6.40;99.90;;;;;;5034445;28;20051;-59
2022/04/09 03:05:48;;;;;;;14.70;3.42;;;6.50;99.90;;;;;;5031847;28;20079;-60
2022/04/09 03:08:14;;;;;;;14.15;3.45;;;6.40;99.90;;;;;;5033013;28;20025;-60
2022/04/09 03:10:40;;;;;;;19.80;3.38;;;6.40;99.90;;;;;;5035176;28;20103;-60
2022/04/09 03:13:06;;;;;;;15.80;4.15;;;6.20;99.90;;;;;;5034632;28;20025;-60
2022/04/09 03:15:32;;;;;;;16.80;3.55;;;6.20;99.90;;;;;;5034119;28;20033;-60
2022/04/09 03:17:58;;;;;;;15.55;3.65;;;6.20;99.90;;;;;;5033470;28;20104;-60
2022/04/09 03:20:24;;;;;;;13.48;3.38;;;6.10;99.90;;;;;;5030867;28;20033;-60
2022/04/09 03:22:50;;;;;;;20.27;3.60;;;6.10;99.90;;;;;;5036092;28;20026;-60
2022/04/09 03:25:17;;;;;;;14.02;3.85;;;5.90;99.90;;;;;;5033598;28;20026;-60
2022/04/09 03:27:43;;;;;;;16.58;4.10;;;5.80;99.90;;;;;;5034084;28;20121;-60
2022/04/09 03:30:10;;;;;;;13.90;3.70;;;5.80;99.90;;;;;;5032714;28;20029;-60
2022/04/09 03:32:37;;;;;;;14.32;3.55;;;5.80;99.90;;;;;;5028772;28;20053;-60
2022/04/09 03:35:04;;;;;;;16.33;4.70;;;5.90;99.90;;;;;;5035481;28;20072;-60
2022/04/09 03:37:30;;;;;;;15.25;4.40;;;6.00;99.90;;;;;;5034310;28;20391;-60
2022/04/09 03:39:56;;;;;;;14.00;4.30;;;5.90;99.90;;;;;;5033450;28;20045;-60
2022/04/09 03:42:21;;;;;;;14.70;3.97;;;5.90;99.90;;;;;;5033983;28;20029;-60
2022/04/09 03:44:47;;;;;;;13.50;3.60;;;5.70;99.90;;;;;;5031428;28;20032;-60
2022/04/09 03:47:13;;;;;;;9.60;3.00;;;5.70;99.90;;;;;;5033410;28;20036;-60
2022/04/09 03:49:38;;;;;;;9.98;4.00;;;5.90;99.90;;;;;;5035250;28;20407;-60
2022/04/09 03:52:04;;;;;;;15.38;3.97;;;5.60;99.90;;;;;;5033710;28;20037;-60
2022/04/09 03:54:32;;;;;;;19.10;5.25;;;5.60;99.90;;;;;;5033471;28;20014;-60
2022/04/09 03:56:58;;;;;;;15.52;5.32;;;5.70;99.90;;;;;;5032731;28;20029;-60
2022/04/09 03:59:24;;;;;;;13.68;4.22;;;5.70;99.90;;;;;;5030399;28;22445;-60
2022/04/09 04:01:50;;;;;;;14.02;4.30;;;5.60;99.90;;;;;;5035788;28;20022;-60
2022/04/09 04:04:16;;;;;;;17.58;4.97;;;5.50;99.90;;;;;;5035267;28;20046;-60
2022/04/09 04:06:41;;;;;;;15.82;4.85;;;5.50;99.90;;;;;;5037353;28;20132;-60
2022/04/09 04:09:08;;;;;;;13.88;4.47;;;5.20;99.90;;;;;;5036283;28;20029;-60
2022/04/09 04:11:34;;;;;;;13.82;4.50;;;5.10;99.90;;;;;;5032314;28;20026;-60
2022/04/09 04:13:59;;;;;;;16.23;4.63;;;4.90;99.90;;;;;;5046516;28;20029;-60
2022/04/09 04:16:25;;;;;;;13.02;4.72;;;4.80;99.90;;;;;;5037584;28;20076;-59
2022/04/09 04:18:51;;;;;;;14.70;6.57;;;5.00;99.90;;;;;;5037221;28;20068;-59
2022/04/09 04:21:17;;;;;;;12.75;5.55;;;5.00;99.90;;;;;;5037427;28;20060;-60
2022/04/09 04:23:43;;;;;;;13.52;5.68;;;4.80;99.90;;;;;;5033968;28;20454;-60
2022/04/09 04:26:09;;;;;;;12.45;4.90;;;4.60;99.90;;;;;;5037067;28;20030;-59
2022/04/09 04:28:34;;;;;;;12.82;5.47;;;4.60;99.90;;;;;;5053134;28;20048;-59
2022/04/09 04:31:00;;;;;;;17.38;5.00;;;4.50;99.90;;;;;;5037478;28;20032;-59
2022/04/09 04:33:26;;;;;;;17.98;5.40;;;4.60;99.90;;;;;;5036953;28;20030;-59
2022/04/09 04:35:52;;;;;;;14.48;6.68;;;4.90;99.90;;;;;;5034930;28;20042;-59
2022/04/09 04:38:18;;;;;;;23.20;9.00;;;4.90;99.90;;;;;;5033880;28;20067;-59
2022/04/09 04:40:44;;;;;;;16.15;4.93;;;4.90;99.90;;;;;;5038757;28;20494;-60
2022/04/09 04:43:09;;;;;;;12.73;5.38;;;4.60;99.90;;;;;;5036822;28;20029;-59
2022/04/09 04:45:35;;;;;;;10.02;4.25;;;4.60;99.90;;;;;;5037139;28;20029;-60
2022/04/09 04:48:01;;;;;;;15.95;4.18;;;4.50;99.90;;;;;;5034582;28;20086;-60
2022/04/09 04:50:27;;;;;;;14.30;3.58;;;4.40;99.90;;;;;;5032176;28;20037;-60
2022/04/09 04:52:53;;;;;;;16.85;4.40;;;4.40;99.90;;;;;;5037985;28;20049;-59
2022/04/09 04:55:18;;;;;;;13.80;3.70;;;4.50;99.90;;;;;;5036536;28;20036;-59
2022/04/09 04:57:47;;;;;;;17.77;8.05;;;4.70;99.90;;;;;;5036563;28;20037;-59
2022/04/09 05:00:19;;;;;;;22.23;9.68;;;4.80;99.90;;;;;;5036659;28;20083;-59
2022/04/09 05:02:44;;;;;;;23.15;9.25;;;4.50;99.90;;;;;;5033654;28;20038;-59
2022/04/09 05:05:10;;;;;;;17.75;8.20;;;4.40;99.90;;;;;;5036231;28;20504;-59
2022/04/09 05:07:47;;;;;;;20.92;11.10;;;4.20;99.90;;;;;;5037051;28;20030;-59
2022/04/09 05:10:15;;;;;;;22.45;10.27;;;4.40;99.90;;;;;;5036294;28;20116;-59
2022/04/09 05:12:42;;;;;;;22.38;9.90;;;4.30;99.90;;;;;;5036686;28;20029;-59
2022/04/09 05:15:09;;;;;;;25.13;10.93;;;4.20;99.90;;;;;;5034193;28;20029;-59
2022/04/09 05:17:36;;;;;;;24.13;11.63;;;4.10;99.90;;;;;;5032110;28;20029;-60
2022/04/09 05:20:03;;;;;;;26.38;16.45;;;4.30;99.90;;;;;;5037659;28;20095;-59
2022/04/09 05:22:31;;;;;;;25.48;13.48;;;4.30;99.90;;;;;;5036337;28;20128;-60
2022/04/09 05:24:57;;;;;;;33.72;12.65;;;4.20;99.90;;;;;;5035876;28;20041;-59
2022/04/09 05:27:23;;;;;;;22.25;11.48;;;4.20;99.90;;;;;;5034948;28;20100;-60
2022/04/09 05:29:48;;;;;;;26.08;12.60;;;4.20;99.90;;;;;;5031720;28;20084;-60
2022/04/09 05:32:14;;;;;;;28.52;14.30;;;4.20;99.90;;;;;;5033551;28;20034;-60
2022/04/09 05:34:40;;;;;;;27.95;13.27;;;4.00;99.90;;;;;;5037292;28;20025;-60
2022/04/09 05:37:06;;;;;;;31.00;15.43;;;3.90;99.90;;;;;;5035537;28;20132;-60
2022/04/09 05:39:32;;;;;;;27.00;12.00;;;3.80;99.90;;;;;;5035366;28;20026;-60
2022/04/09 05:41:59;;;;;;;37.60;14.77;;;;;;;;;;5034649;28;20730;-60
2022/04/09 05:44:25;;;;;;;42.08;13.75;;;4.40;99.90;;;;;;5031971;28;20100;-59
2022/04/09 05:46:50;;;;;;;35.22;12.57;;;4.60;99.90;;;;;;5037480;28;20467;-59
2022/04/09 05:49:16;;;;;;;55.03;39.97;;;4.50;99.90;;;;;;5035391;28;20047;-59
2022/04/09 05:51:42;;;;;;;30.60;15.57;;;4.40;99.90;;;;;;5035525;28;20026;-58
2022/04/09 05:54:07;;;;;;;18.85;7.90;;;4.50;99.90;;;;;;5034152;28;20367;-59
2022/04/09 05:56:33;;;;;;;24.42;9.05;;;4.70;99.90;;;;;;5031093;28;20034;-59
2022/04/09 05:58:59;;;;;;;21.35;8.10;;;4.80;99.90;;;;;;5044310;28;20053;-60
2022/04/09 06:01:24;;;;;;;23.45;8.68;;;4.70;99.90;;;;;;5035635;28;20041;-60
2022/04/09 06:03:50;;;;;;;38.90;14.02;;;4.70;99.90;;;;;;5035534;28;20033;-59
2022/04/09 06:06:16;;;;;;;24.48;10.43;;;4.90;99.90;;;;;;5033375;28;20029;-59
2022/04/09 06:08:41;;;;;;;25.50;10.68;;;5.20;99.90;;;;;;5030299;28;20499;-59
2022/04/09 06:11:08;;;;;;;27.35;11.15;;;5.50;99.90;;;;;;5035273;28;20056;-59
2022/04/09 06:13:34;;;;;;;25.50;10.15;;;6.20;99.90;;;;;;5035734;28;20029;-59
2022/04/09 06:16:00;;;;;;;24.17;10.18;;;7.40;99.90;;;;;;5035092;28;20041;-60
2022/04/09 06:18:26;;;;;;;27.52;11.40;;;8.70;99.90;;;;;;5034695;28;20117;-60
2022/04/09 06:20:52;;;;;;;19.38;10.02;;;9.80;99.90;;;;;;5032327;28;20096;-60
2022/04/09 06:23:17;;;;;;;16.48;7.95;;;10.60;99.90;;;;;;5032858;28;20025;-60
2022/04/09 06:25:43;;;;;;;22.58;10.07;;;10.30;99.90;;;;;;5035022;28;20121;-61
2022/04/09 06:28:09;;;;;;;51.15;27.67;;;10.00;99.90;;;;;;5033104;28;20033;-60
2022/04/09 06:30:37;;;;;;;45.72;23.98;;;10.50;99.90;;;;;;5034840;28;20104;-60
2022/04/09 06:33:02;;;;;;;45.72;21.50;;;10.90;99.90;;;;;;5033672;28;20036;-59
2022/04/09 06:35:29;;;;;;;27.55;13.73;;;11.20;99.90;;;;;;5030414;28;20371;-60
2022/04/09 06:37:55;;;;;;;32.63;18.02;;;11.20;99.90;;;;;;5036559;28;20402;-60
2022/04/09 06:40:20;;;;;;;28.05;17.60;;;12.70;99.90;;;;;;5034591;28;20030;-60
2022/04/09 06:42:46;;;;;;;25.02;15.20;;;13.80;99.90;;;;;;5034922;28;20504;-60
2022/04/09 06:45:13;;;;;;;22.50;14.32;;;14.70;99.90;;;;;;5033016;28;20367;-60
2022/04/09 06:47:40;;;;;;;28.15;16.00;;;14.80;99.90;;;;;;5027957;28;20422;-61
2022/04/09 06:50:08;;;;;;;23.75;15.10;;;15.30;99.90;;;;;;5035202;28;20375;-60
2022/04/09 06:52:33;;;;;;;19.80;8.90;;;14.90;99.90;;;;;;5034214;28;20076;-60
2022/04/09 06:54:59;;;;;;;12.18;6.90;;;17.30;99.90;;;;;;5034159;28;20033;-61
2022/04/09 06:57:25;;;;;;;14.18;6.70;;;18.30;99.90;;;;;;5034674;28;20036;-60
2022/04/09 06:59:50;;;;;;;12.30;5.10;;;19.10;99.90;;;;;;5032292;28;20449;-60
2022/04/09 07:02:16;;;;;;;10.40;5.35;;;19.20;99.90;;;;;;5032148;28;20017;-60
2022/04/09 07:04:42;;;;;;;12.75;5.60;;;20.00;98.20;;;;;;5036406;28;20076;-61
2022/04/09 07:07:07;;;;;;;18.58;5.63;;;19.50;98.70;;;;;;5034260;28;20053;-60
2022/04/09 07:09:33;;;;;;;13.45;5.30;;;21.20;96.70;;;;;;5034064;28;20513;-61
2022/04/09 07:11:59;;;;;;;10.68;5.20;;;20.10;95.60;;;;;;5033369;28;20025;-60
2022/04/09 07:14:24;;;;;;;10.55;4.68;;;20.20;96.40;;;;;;5030606;28;20376;-60
2022/04/09 07:16:50;;;;;;;12.45;5.38;;;20.00;97.10;;;;;;5035926;28;20026;-60
2022/04/09 07:19:16;;;;;;;12.60;4.47;;;20.80;96.00;;;;;;5034003;28;20049;-60
2022/04/09 07:21:41;;;;;;;13.88;4.15;;;20.30;97.00;;;;;;5034123;28;20083;-60
2022/04/09 07:24:07;;;;;;;8.93;3.65;;;20.80;95.90;;;;;;5033212;28;20025;-60
2022/04/09 07:26:33;;;;;;;7.70;3.90;;;21.10;95.20;;;;;;5028636;28;20423;-60
2022/04/09 07:28:59;;;;;;;9.00;3.40;;;21.90;94.70;;;;;;5035931;28;20037;-60
2022/04/09 07:31:24;;;;;;;6.45;3.15;;;22.10;93.20;;;;;;5033782;28;20028;-61
2022/04/09 07:33:50;;;;;;;10.05;3.70;;;22.60;92.40;;;;;;5034465;28;20510;-60
2022/04/09 07:36:16;;;;;;;11.65;3.75;;;22.30;92.80;;;;;;5033877;28;20037;-60
2022/04/09 07:38:42;;;;;;;11.68;4.00;;;21.60;94.10;;;;;;5031477;28;20104;-61
2022/04/09 07:41:07;;;;;;;7.80;2.97;;;21.90;93.80;;;;;;5038175;28;20025;-60
2022/04/09 07:43:33;;;;;;;10.02;3.08;;;22.80;92.50;;;;;;5038455;28;20048;-60
2022/04/09 07:45:59;;;;;;;7.82;3.10;;;22.30;91.60;;;;;;5036451;28;20033;-60
2022/04/09 07:48:25;;;;;;;6.25;2.15;;;21.80;93.00;;;;;;5037439;28;20468;-61
2022/04/09 07:50:50;;;;;;;5.55;2.15;;;23.30;91.10;;;;;;5035880;28;20109;-59
2022/04/09 07:53:16;;;;;;;4.95;2.08;;;22.90;91.30;;;;;;5035782;28;20099;-61
2022/04/09 07:55:42;;;;;;;6.30;2.05;;;21.40;92.20;;;;;;5038516;28;20375;-61
2022/04/09 07:58:08;;;;;;;6.07;2.00;;;20.80;93.80;;;;;;5037485;28;20037;-61
2022/04/09 08:00:34;;;;;;;6.88;2.00;;;20.30;94.60;;;;;;5036791;28;20018;-60
2022/04/09 08:03:00;;;;;;;8.70;1.90;;;18.30;96.30;;;;;;5035809;28;20029;-61
2022/04/09 08:05:26;;;;;;;7.22;1.90;;;18.20;96.70;;;;;;5033346;28;20601;-60
2022/04/09 08:07:52;;;;;;;6.10;1.77;;;15.90;98.90;;;;;;5038332;28;20056;-61
2022/04/09 08:10:18;;;;;;;6.90;1.80;;;14.30;99.90;;;;;;5037465;28;20044;-61
2022/04/09 08:12:48;;;;;;;8.05;1.70;;;14.00;99.90;;;;;;5037355;28;20090;-61
2022/04/09 08:15:16;;;;;;;5.88;1.73;;;14.60;99.90;;;;;;5036342;28;20542;-60
2022/04/09 08:17:42;;;;;;;4.80;1.40;;;13.80;99.90;;;;;;5033938;28;20026;-61
2022/04/09 08:20:08;;;;;;;6.43;1.52;;;13.90;99.90;;;;;;5035632;28;20026;-60
2022/04/09 08:22:34;;;;;;;5.70;1.70;;;17.50;99.90;;;;;;5037120;28;20180;-61
2022/04/09 08:25:02;;;;;;;4.63;1.50;;;20.20;93.70;;;;;;5036856;28;20112;-61
2022/04/09 08:27:28;;;;;;;5.03;1.52;;;23.50;91.70;;;;;;5035075;28;20029;-60
2022/04/09 08:29:54;;;;;;;3.45;1.40;;;24.00;90.00;;;;;;5033177;28;20046;-60
2022/04/09 08:32:19;;;;;;;4.82;1.38;;;24.90;84.40;;;;;;5034037;28;20018;-63
2022/04/09 08:34:45;;;;;;;3.90;1.52;;;23.90;86.40;;;;;;5038876;28;20030;-61
2022/04/09 08:37:12;;;;;;;3.60;1.20;;;25.20;82.00;;;;;;5036700;28;20046;-61
2022/04/09 08:39:37;;;;;;;4.18;1.17;;;22.60;78.90;;;;;;5037234;28;20045;-60
2022/04/09 08:42:04;;;;;;;3.15;1.00;;;22.80;83.10;;;;;;5035075;28;20028;-61
2022/04/09 08:44:30;;;;;;;4.45;1.00;;;25.50;80.20;;;;;;5031692;28;20032;-61
2022/04/09 08:46:57;;;;;;;2.60;1.00;;;27.30;74.30;;;;;;5037947;28;20036;-63
2022/04/09 08:49:24;;;;;;;3.08;1.17;;;27.50;72.40;;;;;;5036349;28;20060;-61
2022/04/09 08:51:50;;;;;;;2.85;1.15;;;27.80;70.00;;;;;;5035560;28;20049;-61
2022/04/09 08:54:17;;;;;;;3.25;1.20;;;28.20;70.50;;;;;;5036862;28;20083;-61
2022/04/09 08:56:43;;;;;;;3.08;1.30;;;28.70;69.70;;;;;;5032480;28;20470;-63
2022/04/09 08:59:11;;;;;;;4.15;1.10;;;29.10;68.90;;;;;;5036106;28;20444;-60
2022/04/09 09:01:36;;;;;;;3.60;1.30;;;27.00;70.10;;;;;;5037149;28;20517;-60
2022/04/09 09:04:02;;;;;;;3.13;1.13;;;21.80;78.10;;;;;;5036885;28;20026;-61
2022/04/09 09:06:30;;;;;;;3.33;1.25;;;20.20;80.50;;;;;;5036454;28;20049;-61
2022/04/09 09:08:57;;;;;;;5.10;1.30;;;25.10;76.30;;;;;;5034958;28;20033;-61
2022/04/09 09:11:26;;;;;;;6.70;2.65;;;27.00;71.40;;;;;;5033396;28;20034;-61
2022/04/09 09:13:55;;;;;;;6.55;2.72;;;25.70;73.20;;;;;;5037085;28;20549;-61
2022/04/09 09:16:23;;;;;;;3.83;1.50;;;23.00;74.90;;;;;;5036261;28;20029;-61
2022/04/09 09:18:54;;;;;;;4.43;1.50;;;22.00;78.60;;;;;;5036163;28;20052;-61
2022/04/09 09:21:23;;;;;;;3.85;1.20;;;21.40;77.70;;;;;;5034825;28;20025;-61
2022/04/09 09:23:51;;;;;;;5.15;1.70;;;22.90;75.00;;;;;;5032501;28;20507;-61
2022/04/09 09:26:26;;;;;;;7.20;1.70;;;22.50;76.70;;;;;;5034207;28;20482;-65
2022/04/09 09:28:56;;;;;;;6.00;1.60;;;20.30;81.00;;;;;;5036269;28;20048;-65
2022/04/09 09:31:55;;;;;;;5.15;1.90;;;20.80;80.00;;;;;;5036156;28;20144;-62
2022/04/09 09:34:21;;;;;;;5.07;1.50;;;20.80;81.90;;;;;;5011172;28;20514;-62
2022/04/09 09:36:48;;;;;;;3.70;1.63;;;23.10;75.80;;;;;;5010401;28;20054;-60
2022/04/09 09:39:16;;;;;;;5.88;1.38;;;21.30;80.10;;;;;;5011048;28;20546;-61
2022/04/09 09:42:17;;;;;;;5.55;1.50;;;21.00;79.50;;;;;;5010336;28;20030;-61
2022/04/09 09:44:43;;;;;;;7.00;1.65;;;20.00;81.00;;;;;;4966371;28;20106;-61
2022/04/09 09:47:12;;;;;;;5.75;1.52;;;18.70;87.20;;;;;;4967640;28;20035;-61
2022/04/09 09:49:48;;;;;;;4.97;1.60;;;18.10;89.80;;;;;;4956432;28;20047;-61
2022/04/09 09:52:14;;;;;;;6.03;1.60;;;17.50;90.80;;;;;;4961047;28;20030;-61
2022/04/09 09:55:00;;;;;;;5.45;1.63;;;16.00;94.30;;;;;;4962644;28;20504;-62
2022/04/09 09:57:28;;;;;;;3.78;1.30;;;13.40;99.90;;;;;;4954297;28;20058;-61
2022/04/09 09:59:56;;;;;;;4.50;1.25;;;13.10;99.90;;;;;;4967352;28;20420;-61
2022/04/09 10:02:23;;;;;;;4.93;1.38;;;12.10;99.90;;;;;;4953093;28;20047;-61
2022/04/09 10:04:53;;;;;;;7.22;1.52;;;12.90;99.90;;;;;;4956027;28;20031;-60
2022/04/09 10:07:20;;;;;;;5.75;1.60;;;13.40;99.90;;;;;;4956409;28;20039;-59
2022/04/09 10:09:49;;;;;;;4.47;1.35;;;13.40;99.90;;;;;;4965424;28;20050;-60
2022/04/09 10:12:20;;;;;;;5.65;1.42;;;15.00;99.90;;;;;;4985260;28;20113;-61
2022/04/09 10:14:57;;;;;;;6.13;1.52;;;16.50;99.90;;;;;;4985486;28;20053;-60
2022/04/09 10:17:24;;;;;;;3.80;1.33;;;18.60;99.50;;;;;;4986988;28;20216;-61
2022/04/09 10:19:58;;;;;;;7.18;1.92;;;16.90;99.20;;;;;;4989786;28;20034;-60
2022/04/09 10:22:29;;;;;;;6.18;1.52;;;16.60;96.90;;;;;;5034529;28;20039;-61
2022/04/09 10:24:56;;;;;;;5.97;1.83;;;17.30;99.70;;;;;;5034911;28;20037;-61
2022/04/09 10:27:38;;;;;;;5.90;2.00;;;19.70;97.70;;;;;;5034768;28;20017;-61
2022/04/09 10:30:30;;;;;;;6.47;2.45;;;19.10;95.40;;;;;;5034444;28;20127;-62
2022/04/09 10:32:58;;;;;;;5.50;1.70;;;20.70;93.30;;;;;;5020790;28;20053;-63
2022/04/09 10:35:41;;;;;;;5.10;1.60;;;20.00;92.50;;;;;;5031213;28;20071;-63
2022/04/09 10:38:07;;;;;;;5.50;2.00;;;20.20;92.30;;;;;;5044443;28;20379;-61
2022/04/09 10:40:55;;;;;;;7.00;1.85;;;18.90;92.00;;;;;;5033112;28;20219;-61
2022/04/09 10:43:25;;;;;;;5.35;1.45;;;18.20;95.30;;;;;;5032511;28;20045;-61
2022/04/09 10:46:04;;;;;;;4.55;1.42;;;19.10;93.50;;;;;;5034565;28;20029;-61
2022/04/09 10:48:37;;;;;;;4.28;1.63;;;18.20;91.60;;;;;;5034548;28;20394;-61
2022/04/09 10:51:11;;;;;;;4.57;1.43;;;19.70;91.10;;;;;;5034012;28;20106;-61
2022/04/09 10:54:05;;;;;;;4.63;1.63;;;20.80;90.30;;;;;;5014850;28;20366;-61
2022/04/09 10:56:42;;;;;;;5.30;1.88;;;21.10;86.50;;;;;;5013976;28;20426;-61
2022/04/09 10:59:16;;;;;;;6.65;1.80;;;20.00;89.60;;;;;;5044557;28;20055;-61
2022/04/09 11:01:48;;;;;;;4.35;1.70;;;21.50;89.30;;;;;;5035925;28;20033;-61
2022/04/09 11:04:26;;;;;;;5.22;1.70;;;21.80;84.40;;;;;;5033978;28;20182;-61
2022/04/09 11:07:08;;;;;;;5.57;1.73;;;22.00;78.00;;;;;;5034247;28;20330;-61
2022/04/09 11:09:50;;;;;;;4.63;1.40;;;21.10;81.10;;;;;;5034109;28;20037;-62
2022/04/09 11:12:21;;;;;;;5.57;1.50;;;21.40;79.80;;;;;;5034280;28;20053;-61
2022/04/09 11:14:56;;;;;;;6.70;1.65;;;19.80;81.40;;;;;;5029540;28;20029;-62
2022/04/09 11:17:35;;;;;;;8.20;1.80;;;20.80;83.80;;;;;;5031813;28;20025;-62
2022/04/09 11:20:10;;;;;;;6.03;1.60;;;21.60;81.20;;;;;;5047424;28;20025;-62
2022/04/09 11:22:52;;;;;;;4.70;1.60;;;22.00;78.20;;;;;;5033417;28;20041;-62
2022/04/09 11:25:26;;;;;;;5.97;1.63;;;21.20;79.80;;;;;;5033836;28;20079;-61
2022/04/09 11:28:04;;;;;;;9.77;1.70;;;21.40;78.40;;;;;;5034159;28;20029;-62
2022/04/09 11:30:29;;;;;;;5.15;1.55;;;21.40;78.30;;;;;;5033673;28;20040;-62
2022/04/09 11:32:55;;;;;;;7.47;1.42;;;22.00;76.80;;;;;;5032839;28;21923;-62
2022/04/09 11:35:24;;;;;;;5.18;1.63;;;21.10;75.00;;;;;;5031666;28;20056;-62
2022/04/09 11:37:51;;;;;;;5.05;1.77;;;20.80;74.40;;;;;;5034033;28;20034;-61
2022/04/09 11:40:19;;;;;;;5.35;1.65;;;18.60;76.70;;;;;;5034119;28;20032;-62
2022/04/09 11:42:55;;;;;;;6.32;1.80;;;19.80;83.10;;;;;;5034209;28;20514;-62
2022/04/09 11:45:34;;;;;;;5.57;1.90;;;20.10;77.50;;;;;;5033777;28;20075;-62
2022/04/09 11:48:01;;;;;;;7.50;1.90;;;20.40;78.50;;;;;;5032452;28;20112;-61
2022/04/09 11:50:31;;;;;;;3.72;1.35;;;19.90;78.10;;;;;;5030599;28;20034;-61
2022/04/09 11:53:16;;;;;;;6.32;1.50;;;18.50;77.80;;;;;;5035561;28;20026;-61
2022/04/09 11:55:43;;;;;;;4.72;1.55;;;19.50;82.20;;;;;;5034965;28;20120;-62
2022/04/09 11:58:11;;;;;;;4.47;1.40;;;20.00;79.90;;;;;;5032943;28;20030;-62
2022/04/09 12:00:42;;;;;;;7.47;1.52;;;20.00;78.10;;;;;;5032357;28;20056;-61
2022/04/09 12:03:08;;;;;;;4.82;1.63;;;20.10;75.70;;;;;;5033801;28;20029;-61
2022/04/09 12:05:46;;;;;;;7.28;1.70;;;20.30;80.30;;;;;;5029191;28;20026;-62
2022/04/09 12:08:13;;;;;;;3.35;1.52;;;19.40;75.40;;;;;;5043550;28;20052;-61
2022/04/09 12:11:01;;;;;;;5.32;1.65;;;19.90;78.70;;;;;;5035302;28;20382;-62
2022/04/09 12:13:36;;;;;;;5.72;1.63;;;20.30;75.90;;;;;;5033736;28;20029;-61
2022/04/09 12:16:15;;;;;;;4.35;1.13;;;19.80;77.70;;;;;;5033831;28;20421;-61
2022/04/09 12:18:42;;;;;;;4.80;1.67;;;18.10;75.00;;;;;;5033485;28;20136;-61
2022/04/09 12:21:27;;;;;;;3.50;1.10;;;18.10;79.40;;;;;;5033893;28;20463;-61
2022/04/09 12:24:01;;;;;;;3.58;1.20;;;19.00;76.80;;;;;;5018806;28;20017;-61
2022/04/09 12:26:28;;;;;;;4.72;1.30;;;19.90;79.80;;;;;;5033405;28;20088;-62
2022/04/09 12:29:07;;;;;;;4.07;1.23;;;19.40;78.50;;;;;;5037855;28;20032;-61
2022/04/09 12:31:34;;;;;;;5.63;1.60;;;18.50;77.90;;;;;;5036122;28;20079;-61
2022/04/09 12:34:01;;;;;;;3.97;1.58;;;19.40;79.90;;;;;;5037276;28;20029;-61
2022/04/09 12:36:27;;;;;;;3.03;1.00;;;19.60;78.30;;;;;;5035169;28;20044;-62
2022/04/09 12:38:52;;;;;;;5.75;1.20;;;18.60;79.50;;;;;;5032236;28;20491;-61
2022/04/09 12:41:18;;;;;;;3.80;1.30;;;19.40;81.70;;;;;;5035153;28;20017;-62
2022/04/09 12:43:46;;;;;;;4.72;1.15;;;18.80;77.80;;;;;;5038703;28;20429;-61
2022/04/09 12:46:18;;;;;;;2.50;1.20;;;18.50;80.40;;;;;;5036839;28;20034;-61
2022/04/09 12:48:45;;;;;;;2.97;1.13;;;19.20;80.50;;;;;;5036551;28;20049;-62
2022/04/09 12:51:13;;;;;;;2.33;1.05;;;19.50;78.40;;;;;;5036442;28;20033;-62